Time;durP1;ratioP1;P1;durP2;ratioP2;P2;SDS_P1;SDS_P2;PMS_P1;PMS_P2;Temp;Humidity;BMP_temperature;BMP_pressure;BME280_temperature;BME280_humidity;BME280_pressure;Samples;Min_cycle;Max_cycle;Signal;HPM_P1;HPM_P2
2021/03/18 00:00:22;;;;;;;1999.90;999.90;;;;;;;3.61;73.05;98452.41;5021251;28;20054;-66
2021/03/18 00:02:49;;;;;;;1999.90;999.90;;;;;;;3.40;74.08;98453.56;5025352;28;20041;-66
2021/03/18 00:05:15;;;;;;;1999.90;999.90;;;;;;;3.20;75.02;98457.13;5020086;28;20053;-66
2021/03/18 00:07:42;;;;;;;1999.90;999.90;;;;;;;3.31;74.66;98451.38;5020615;28;20456;-66
2021/03/18 00:10:09;;;;;;;1999.90;999.90;;;;;;;3.49;74.39;98452.72;5022656;28;20053;-67
2021/03/18 00:12:35;;;;;;;1999.90;999.90;;;;;;;3.17;75.29;98459.34;5040619;28;20107;-66
2021/03/18 00:15:10;;;;;;;1999.90;999.90;;;;;;;3.14;75.32;98459.03;5025574;28;20117;-66
2021/03/18 00:17:37;;;;;;;1999.90;999.90;;;;;;;3.69;73.61;98454.59;5021075;28;20484;-66
2021/03/18 00:20:09;;;;;;;1999.90;999.90;;;;;;;3.88;72.77;98452.09;5020926;28;20574;-66
2021/03/18 00:22:39;;;;;;;1999.90;999.90;;;;;;;3.64;72.95;98448.31;5023543;28;20056;-67
2021/03/18 00:25:08;;;;;;;1999.90;999.90;;;;;;;3.60;73.78;98450.78;5018570;28;20049;-66
2021/03/18 00:27:35;;;;;;;1999.90;999.90;;;;;;;3.47;74.35;98445.91;5013773;28;20103;-65
2021/03/18 00:30:04;;;;;;;1999.90;999.90;;;;;;;3.39;74.35;98443.72;5013867;28;20061;-67
2021/03/18 00:32:33;;;;;;;1999.90;999.90;;;;;;;3.47;73.90;98437.72;5022569;28;20059;-67
2021/03/18 00:35:00;;;;;;;1999.90;999.90;;;;;;;3.59;73.56;98440.13;5025389;28;20522;-66
2021/03/18 00:37:26;;;;;;;1999.90;999.90;;;;;;;3.23;74.91;98445.66;5018925;28;20445;-66
2021/03/18 00:39:55;;;;;;;1999.90;999.90;;;;;;;3.70;73.38;98436.25;5022839;28;20053;-66
2021/03/18 00:42:21;;;;;;;1999.90;999.90;;;;;;;2.77;75.70;98441.84;5013744;28;20046;-66
2021/03/18 00:44:49;;;;;;;1999.90;999.90;;;;;;;2.15;77.58;98443.66;5020570;28;20057;-66
2021/03/18 00:47:15;;;;;;;1999.90;999.90;;;;;;;2.81;77.37;98436.66;5026821;28;20053;-66
2021/03/18 00:49:42;;;;;;;1999.90;999.90;;;;;;;2.58;77.48;98440.75;5017582;28;20080;-66
2021/03/18 00:52:08;;;;;;;1999.90;999.90;;;;;;;2.79;76.88;98436.13;5022959;28;20555;-66
2021/03/18 00:54:34;;;;;;;1999.90;999.90;;;;;;;2.71;77.54;98432.03;5020527;28;20111;-65
2021/03/18 00:57:00;;;;;;;1999.90;999.90;;;;;;;3.21;75.68;98431.47;5023589;28;20115;-65
2021/03/18 00:59:26;;;;;;;1999.90;999.90;;;;;;;2.97;76.06;98432.81;5020752;28;20128;-65
2021/03/18 01:01:53;;;;;;;1999.90;999.90;;;;;;;2.67;77.01;98427.38;5022687;28;20049;-65
2021/03/18 01:04:19;;;;;;;1999.90;999.90;;;;;;;2.56;77.00;98426.53;5018479;28;20129;-65
2021/03/18 01:06:45;;;;;;;1999.90;999.90;;;;;;;2.53;76.99;98427.91;5024368;28;20049;-65
2021/03/18 01:09:12;;;;;;;1999.90;999.90;;;;;;;2.66;77.30;98432.00;5014674;28;20046;-65
2021/03/18 01:11:40;;;;;;;1999.90;999.90;;;;;;;2.74;77.01;98426.03;5020323;28;20097;-65
2021/03/18 01:14:12;;;;;;;1999.90;999.90;;;;;;;3.26;75.31;98426.81;5026112;28;20053;-65
2021/03/18 01:16:50;;;;;;;1999.90;999.90;;;;;;;3.11;75.52;98424.91;5022960;28;20505;-65
2021/03/18 01:19:20;;;;;;;1999.90;999.90;;;;;;;3.35;74.75;98422.41;5024564;28;20053;-65
2021/03/18 01:21:50;;;;;;;1999.90;999.90;;;;;;;2.99;75.22;98429.81;5024870;28;20115;-65
2021/03/18 01:24:16;;;;;;;1999.90;999.90;;;;;;;2.89;75.49;98425.19;5018762;28;20046;-65
2021/03/18 01:26:43;;;;;;;1999.90;999.90;;;;;;;3.17;74.06;98426.53;5021025;28;20057;-65
2021/03/18 01:29:10;;;;;;;1999.90;999.90;;;;;;;2.11;77.74;98417.97;5019470;28;20320;-65
2021/03/18 01:31:37;;;;;;;1999.90;999.90;;;;;;;2.75;76.62;98424.91;5021799;28;20095;-65
2021/03/18 01:34:05;;;;;;;1999.90;999.90;;;;;;;2.71;76.29;98420.25;5016453;28;20103;-65
2021/03/18 01:36:33;;;;;;;1999.90;999.90;;;;;;;2.23;77.68;98420.47;5022437;28;20053;-65
2021/03/18 01:39:00;;;;;;;1999.90;999.90;;;;;;;2.38;78.17;98425.97;5020592;28;20053;-65
2021/03/18 01:41:28;;;;;;;1999.90;999.90;;;;;;;2.77;76.23;98422.75;5017482;28;20560;-65
2021/03/18 01:43:55;;;;;;;1999.90;999.90;;;;;;;2.87;75.29;98426.56;5020604;28;20049;-65
2021/03/18 01:46:21;;;;;;;1999.90;999.90;;;;;;;2.38;77.11;98425.16;5022317;28;20046;-65
2021/03/18 01:48:48;;;;;;;1999.90;999.90;;;;;;;2.09;78.95;98414.72;5018091;28;20367;-65
2021/03/18 01:51:16;;;;;;;1999.90;999.90;;;;;;;2.82;76.18;98421.91;5024171;28;20049;-65
2021/03/18 01:53:42;;;;;;;1999.90;999.90;;;;;;;2.34;77.37;98422.16;5022314;28;20060;-65
2021/03/18 01:56:08;;;;;;;1999.90;999.90;;;;;;;2.31;78.25;98425.41;5020288;28;20111;-65
2021/03/18 01:58:36;;;;;;;1999.90;999.90;;;;;;;2.37;77.23;98412.59;5018903;28;20054;-65
2021/03/18 02:01:08;;;;;;;1999.90;999.90;;;;;;;2.61;76.54;98413.72;5019068;28;20131;-65
2021/03/18 02:03:35;;;;;;;1999.90;999.90;;;;;;;2.10;77.55;98416.38;5021305;28;20045;-65
2021/03/18 02:06:01;;;;;;;1999.90;999.90;;;;;;;2.65;76.03;98411.28;5021328;28;20430;-65
2021/03/18 02:08:28;;;;;;;1999.90;999.90;;;;;;;2.42;77.48;98418.06;5026988;28;20496;-65
2021/03/18 02:10:54;;;;;;;1999.90;999.90;;;;;;;2.11;77.67;98415.25;5022922;28;20057;-65
2021/03/18 02:13:21;;;;;;;1999.90;999.90;;;;;;;1.93;78.37;98419.28;5024378;28;20149;-65
2021/03/18 02:16:07;;;;;;;1999.90;999.90;;;;;;;2.15;78.37;98418.28;5022804;28;20054;-65
2021/03/18 02:18:50;;;;;;;1999.90;999.90;;;;;;;1.54;80.03;98427.84;5022655;28;20128;-65
2021/03/18 02:21:37;;;;;;;1999.90;999.90;;;;;;;1.14;82.16;98423.81;5017963;28;20045;-65
2021/03/18 02:24:14;;;;;;;1999.90;999.90;;;;;;;1.22;81.51;98434.19;5023013;28;20102;-65
2021/03/18 02:27:12;;;;;;;1999.90;999.90;;;;;;;1.98;78.61;98426.66;5021874;28;20114;-65
2021/03/18 02:30:16;;;;;;;1999.90;999.90;;;;;;;1.44;80.67;98433.25;5022685;28;20115;-65
2021/03/18 02:33:06;;;;;;;1999.90;999.90;;;;;;;1.84;78.81;98426.34;5021649;28;20042;-65
2021/03/18 02:35:34;;;;;;;1999.90;999.90;;;;;;;1.77;79.75;98421.13;5023327;28;20075;-65
2021/03/18 02:38:09;;;;;;;1999.90;999.90;;;;;;;1.75;79.77;98435.03;5022148;28;20116;-65
2021/03/18 02:40:45;;;;;;;1999.90;999.90;;;;;;;1.41;80.37;98434.59;5021777;28;20050;-65
2021/03/18 02:43:14;;;;;;;1999.90;999.90;;;;;;;1.23;81.59;98430.41;5020379;28;20045;-65
2021/03/18 02:45:43;;;;;;;1999.90;999.90;;;;;;;2.03;79.31;98421.25;5024518;28;20108;-65
2021/03/18 02:48:17;;;;;;;1999.90;999.90;;;;;;;1.84;79.37;98431.81;5022539;28;20099;-65
2021/03/18 02:50:44;;;;;;;1999.90;999.90;;;;;;;1.54;80.42;98425.13;5016420;28;20046;-65
2021/03/18 02:53:11;;;;;;;1999.90;999.90;;;;;;;1.78;80.00;98427.44;5016548;28;20103;-65
2021/03/18 02:55:43;;;;;;;1999.90;999.90;;;;;;;1.56;79.80;98417.50;5020351;28;20048;-65
2021/03/18 02:58:12;;;;;;;1999.90;999.90;;;;;;;1.75;79.35;98431.50;5016886;28;20073;-65
2021/03/18 03:00:39;;;;;;;1999.90;999.90;;;;;;;1.68;79.21;98429.03;5020716;28;20053;-65
2021/03/18 03:03:06;;;;;;;1999.90;999.90;;;;;;;0.90;81.45;98420.66;5023264;28;20057;-65
2021/03/18 03:05:34;;;;;;;1999.90;999.90;;;;;;;1.59;80.71;98436.06;5020426;28;20155;-65
2021/03/18 03:08:02;;;;;;;1999.90;999.90;;;;;;;1.96;78.95;98435.13;5023915;28;20049;-65
2021/03/18 03:10:30;;;;;;;1999.90;999.90;;;;;;;1.80;79.77;98439.69;5023468;28;20045;-65
2021/03/18 03:12:57;;;;;;;1999.90;999.90;;;;;;;1.97;78.65;98436.78;5018466;28;20056;-65
2021/03/18 03:15:29;;;;;;;1999.90;999.90;;;;;;;2.17;78.13;98435.19;5022447;28;20063;-65
2021/03/18 03:17:59;;;;;;;1999.90;999.90;;;;;;;1.90;78.80;98436.19;5022604;28;20041;-65
2021/03/18 03:20:27;;;;;;;1999.90;999.90;;;;;;;1.49;79.79;98430.53;5023553;28;20064;-65
2021/03/18 03:22:55;;;;;;;1999.90;999.90;;;;;;;1.96;79.10;98429.66;5013249;28;20100;-65
2021/03/18 03:25:22;;;;;;;1999.90;999.90;;;;;;;1.62;79.80;98440.16;5020832;28;20045;-65
2021/03/18 03:27:49;;;;;;;1999.90;999.90;;;;;;;1.46;80.45;98442.81;5018411;28;20424;-65
2021/03/18 03:30:16;;;;;;;1999.90;999.90;;;;;;;1.16;82.45;98440.69;5021508;28;20104;-65
2021/03/18 03:32:42;;;;;;;1999.90;999.90;;;;;;;1.51;81.94;98442.03;5022609;28;20076;-65
2021/03/18 03:35:09;;;;;;;1999.90;999.90;;;;;;;1.21;81.89;98441.56;5022726;28;20057;-65
2021/03/18 03:37:36;;;;;;;1999.90;999.90;;;;;;;1.46;82.25;98448.25;5020753;28;20049;-65
2021/03/18 03:40:05;;;;;;;1999.90;999.90;;;;;;;1.66;81.49;98446.72;5016717;28;20056;-65
2021/03/18 03:42:31;;;;;;;1999.90;999.90;;;;;;;1.43;81.70;98440.63;5019772;28;20045;-65
2021/03/18 03:44:57;;;;;;;1999.90;999.90;;;;;;;1.89;80.48;98442.72;5015295;28;20053;-65
2021/03/18 03:47:25;;;;;;;1999.90;999.90;;;;;;;1.59;81.06;98446.94;5022180;28;20042;-65
2021/03/18 03:49:52;;;;;;;1999.90;999.90;;;;;;;1.60;81.58;98442.34;5023000;28;20057;-65
2021/03/18 03:52:22;;;;;;;1999.90;999.90;;;;;;;1.68;81.41;98439.09;5002191;28;20050;-65
2021/03/18 03:55:14;;;;;;;1999.90;999.90;;;;;;;1.17;83.85;98445.06;5020734;28;20057;-65
2021/03/18 03:58:30;;;;;;;1999.90;999.90;;;;;;;0.76;85.37;98442.88;5022857;28;20048;-65
2021/03/18 04:00:59;;;;;;;1999.90;999.90;;;;;;;0.99;84.86;98447.13;4963820;28;20055;-65
2021/03/18 04:03:27;;;;;;;1999.90;999.90;;;;;;;1.34;84.20;98440.28;4966043;28;20047;-65
2021/03/18 04:05:58;;;;;;;1999.90;999.90;;;;;;;1.26;84.55;98439.97;5000422;28;20337;-65
2021/03/18 04:08:26;;;;;;;1999.90;999.90;;;;;;;1.87;82.26;98447.63;5018546;28;20038;-65
2021/03/18 04:10:56;;;;;;;1999.90;999.90;;;;;;;1.48;83.98;98448.81;5019939;28;20064;-65
2021/03/18 04:13:24;;;;;;;1999.90;999.90;;;;;;;1.80;82.88;98442.41;5023972;28;20406;-65
2021/03/18 04:15:51;;;;;;;1999.90;999.90;;;;;;;1.62;83.01;98451.88;5017360;28;20131;-65
2021/03/18 04:18:20;;;;;;;1999.90;999.90;;;;;;;1.16;84.23;98455.16;5020380;28;20046;-65
2021/03/18 04:20:48;;;;;;;1999.90;999.90;;;;;;;1.26;84.25;98451.66;5013383;28;20121;-65
2021/03/18 04:23:15;;;;;;;1999.90;999.90;;;;;;;1.56;84.19;98464.69;5005242;28;20050;-64
2021/03/18 04:25:42;;;;;;;1999.90;999.90;;;;;;;1.65;83.26;98455.97;5017550;28;20496;-65
2021/03/18 04:28:10;;;;;;;1999.90;999.90;;;;;;;2.34;81.40;98454.91;5018432;28;20119;-65
2021/03/18 04:30:39;;;;;;;1999.90;999.90;;;;;;;2.34;80.68;98456.78;5020057;28;20439;-65
2021/03/18 04:33:06;;;;;;;1999.90;999.90;;;;;;;1.39;83.04;98458.56;5022968;28;20045;-65
2021/03/18 04:35:33;;;;;;;1999.90;999.90;;;;;;;1.12;85.49;98453.22;5035873;28;20068;-65
2021/03/18 04:38:04;;;;;;;1999.90;999.90;;;;;;;1.66;84.14;98455.72;5020713;28;20492;-65
2021/03/18 04:40:31;;;;;;;;;;;;;;;1.65;84.07;98448.63;5020251;28;20100;-65
2021/03/18 04:42:58;;;;;;;1999.90;999.90;;;;;;;1.87;82.74;98450.38;5022211;28;19924;-65
2021/03/18 04:45:26;;;;;;;1999.90;999.90;;;;;;;1.67;83.21;98453.84;5019287;28;20053;-65
2021/03/18 04:47:53;;;;;;;1999.90;999.90;;;;;;;1.20;85.06;98461.69;5024315;28;20095;-65
2021/03/18 04:50:22;;;;;;;1999.90;999.90;;;;;;;1.32;85.40;98458.78;5021708;28;20069;-65
2021/03/18 04:52:49;;;;;;;1999.90;999.90;;;;;;;1.54;83.72;98463.28;5023195;28;20456;-65
2021/03/18 04:55:17;;;;;;;1999.90;999.90;;;;;;;1.35;84.16;98455.53;5019762;28;20105;-65
2021/03/18 04:57:54;;;;;;;1999.90;999.90;;;;;;;1.05;84.93;98459.69;5027872;28;20550;-65
2021/03/18 05:00:21;;;;;;;1999.90;999.90;;;;;;;1.30;84.24;98452.78;5014147;28;20119;-65
2021/03/18 05:02:48;;;;;;;1999.90;999.90;;;;;;;1.64;82.56;98465.25;5016736;28;20391;-65
2021/03/18 05:05:20;;;;;;;1999.90;999.90;;;;;;;1.17;84.04;98461.41;5021066;28;20046;-65
2021/03/18 05:07:50;;;;;;;1999.90;999.90;;;;;;;0.40;86.29;98458.03;5015874;28;20053;-65
2021/03/18 05:10:19;;;;;;;1999.90;999.90;;;;;;;1.12;85.44;98461.41;5020885;28;20103;-65
2021/03/18 05:12:45;;;;;;;1999.90;999.90;;;;;;;0.62;86.47;98466.94;5018688;28;20056;-65
2021/03/18 05:15:14;;;;;;;1999.90;999.90;;;;;;;0.55;86.39;98473.69;5019134;28;20064;-65
2021/03/18 05:17:40;;;;;;;1999.90;999.90;;;;;;;0.50;87.50;98469.81;5018455;28;20451;-65
2021/03/18 05:20:09;;;;;;;1999.90;999.90;;;;;;;0.99;86.38;98470.81;5020361;28;20052;-65
2021/03/18 05:22:36;;;;;;;1999.90;999.90;;;;;;;1.36;84.23;98470.00;5016945;28;20045;-65
2021/03/18 05:25:04;;;;;;;1999.90;999.90;;;;;;;1.56;82.48;98474.75;5024475;28;20062;-65
2021/03/18 05:27:30;;;;;;;1999.90;999.90;;;;;;;1.39;82.64;98485.81;5015935;28;20062;-65
2021/03/18 05:29:57;;;;;;;1999.90;999.90;;;;;;;1.03;84.21;98494.53;5018293;28;20050;-65
2021/03/18 05:32:24;;;;;;;1999.90;999.90;;;;;;;1.40;83.43;98480.09;5023759;28;20049;-65
2021/03/18 05:34:50;;;;;;;1999.90;999.90;;;;;;;1.71;82.29;98485.75;5017487;28;20057;-65
2021/03/18 05:37:16;;;;;;;1999.90;999.90;;;;;;;1.42;82.43;98488.03;5022558;28;20099;-65
2021/03/18 05:39:42;;;;;;;1999.90;999.90;;;;;;;1.11;83.65;98489.69;5017266;28;20056;-65
2021/03/18 05:42:08;;;;;;;1999.90;999.90;;;;;;;0.65;85.28;98488.19;5017980;28;20053;-65
2021/03/18 05:44:34;;;;;;;1999.90;999.90;;;;;;;0.46;86.70;98490.50;5017759;28;20053;-66
2021/03/18 05:47:01;;;;;;;1999.90;999.90;;;;;;;0.83;85.72;98494.34;5029688;28;20049;-65
2021/03/18 05:49:29;;;;;;;1999.90;999.90;;;;;;;1.14;84.56;98486.47;5012127;28;20133;-66
2021/03/18 05:51:56;;;;;;;1999.90;999.90;;;;;;;1.36;83.67;98498.06;5018400;28;20045;-66
2021/03/18 05:54:23;;;;;;;1999.90;999.90;;;;;;;1.32;82.91;98496.94;5016514;28;20053;-66
2021/03/18 05:56:50;;;;;;;1999.90;999.90;;;;;;;1.46;82.56;98508.22;5016594;28;20055;-65
2021/03/18 05:59:18;;;;;;;1999.90;999.90;;;;;;;1.61;81.82;98499.31;5014691;28;20104;-66
2021/03/18 06:01:44;;;;;;;1999.90;999.90;;;;;;;1.55;82.10;98505.84;5018223;28;20131;-66
2021/03/18 06:04:11;;;;;;;1999.90;999.90;;;;;;;0.60;84.87;98501.78;5019609;28;20535;-66
2021/03/18 06:06:38;;;;;;;1999.90;999.90;;;;;;;0.74;86.62;98502.16;5020176;28;20057;-66
2021/03/18 06:09:07;;;;;;;1999.90;999.90;;;;;;;1.46;83.21;98504.66;5017543;28;20056;-66
2021/03/18 06:11:33;;;;;;;1999.90;999.90;;;;;;;1.31;82.79;98503.50;5023291;28;20579;-65
2021/03/18 06:14:00;;;;;;;1999.90;999.90;;;;;;;0.64;85.66;98507.50;5019336;28;20046;-65
2021/03/18 06:16:27;;;;;;;1999.90;999.90;;;;;;;1.06;84.67;98509.56;5021070;28;20123;-65
2021/03/18 06:18:54;;;;;;;1999.90;999.90;;;;;;;1.09;83.62;98510.91;5019935;28;20049;-66
2021/03/18 06:21:48;;;;;;;1999.90;999.90;;;;;;;1.36;82.77;98511.69;5010570;28;20091;-65
2021/03/18 06:24:15;;;;;;;1999.90;999.90;;;;;;;1.19;83.57;98519.16;5021627;28;20064;-66
2021/03/18 06:26:41;;;;;;;1999.90;999.90;;;;;;;1.26;84.05;98518.97;4999038;28;20119;-65
2021/03/18 06:29:26;;;;;;;1999.90;999.90;;;;;;;1.01;83.33;98517.66;5012182;28;20054;-64
2021/03/18 06:31:52;;;;;;;1999.90;999.90;;;;;;;0.45;86.20;98521.47;4995844;28;20050;-64
2021/03/18 06:34:49;;;;;;;1999.90;999.90;;;;;;;0.41;86.72;98525.78;4992705;28;20408;-64
2021/03/18 06:37:36;;;;;;;1999.90;999.90;;;;;;;0.17;87.24;98525.25;4997246;28;20050;-65
2021/03/18 06:40:18;;;;;;;1999.90;999.90;;;;;;;0.35;86.66;98527.63;4995400;28;20057;-64
2021/03/18 06:43:01;;;;;;;1999.90;999.90;;;;;;;-0.26;88.10;98535.81;4997365;28;20414;-64
2021/03/18 06:45:33;;;;;;;1999.90;999.90;;;;;;;0.04;89.10;98539.22;4998390;28;20059;-64
2021/03/18 06:48:06;;;;;;;1999.90;999.90;;;;;;;0.32;87.13;98535.47;4996494;28;20077;-64
2021/03/18 06:50:39;;;;;;;1999.90;999.90;;;;;;;-0.24;89.60;98541.84;4999278;28;20061;-65
2021/03/18 06:53:23;;;;;;;1999.90;999.90;;;;;;;0.62;87.58;98535.00;4997039;28;20095;-64
2021/03/18 06:55:51;;;;;;;1999.90;999.90;;;;;;;0.13;87.55;98533.06;4996859;28;20049;-64
2021/03/18 06:58:20;;;;;;;1999.90;999.90;;;;;;;0.32;87.10;98538.19;4994805;28;20123;-64
2021/03/18 07:00:57;;;;;;;1999.90;999.90;;;;;;;0.04;88.40;98536.50;4995882;28;20054;-64
2021/03/18 07:03:27;;;;;;;1999.90;999.90;;;;;;;0.31;88.73;98536.56;4996283;28;20050;-64
2021/03/18 07:05:53;;;;;;;1999.90;999.90;;;;;;;0.28;87.59;98535.19;4996285;28;20156;-65
2021/03/18 07:08:22;;;;;;;1999.90;999.90;;;;;;;0.17;86.96;98534.22;4994633;28;20046;-65
2021/03/18 07:10:48;;;;;;;1999.90;999.90;;;;;;;0.20;87.59;98532.91;4996543;28;20560;-65
2021/03/18 07:13:20;;;;;;;1999.90;999.90;;;;;;;0.99;86.24;98531.53;4995390;28;20096;-64
2021/03/18 07:15:47;;;;;;;;;;;;;;;0.82;86.00;98528.94;4997854;28;20450;-64
2021/03/18 07:18:13;;;;;;;1999.90;999.90;;;;;;;1.14;84.20;98532.75;4994187;28;19933;-65
2021/03/18 07:21:01;;;;;;;1999.90;999.90;;;;;;;1.20;84.22;98532.53;4994574;28;20050;-64
2021/03/18 07:23:35;;;;;;;1999.90;999.90;;;;;;;0.81;83.80;98529.19;4996636;28;20124;-65
2021/03/18 07:26:11;;;;;;;1999.90;999.90;;;;;;;1.03;84.43;98534.59;4998028;28;20050;-64
2021/03/18 07:28:37;;;;;;;1999.90;999.90;;;;;;;1.73;81.91;98534.56;5019903;28;20512;-65
2021/03/18 07:31:04;;;;;;;1999.90;999.90;;;;;;;1.83;80.91;98529.19;5014123;28;20099;-65
2021/03/18 07:33:32;;;;;;;1999.90;999.90;;;;;;;1.75;80.14;98533.19;5020794;28;20115;-64
2021/03/18 07:36:00;;;;;;;1999.90;999.90;;;;;;;1.71;77.76;98534.00;5016629;28;20060;-65
2021/03/18 07:38:29;;;;;;;1999.90;999.90;;;;;;;1.96;76.96;98522.41;5019768;28;20041;-64
2021/03/18 07:40:58;;;;;;;1999.90;999.90;;;;;;;2.32;76.10;98519.81;5017960;28;20160;-65
2021/03/18 07:43:25;;;;;;;1999.90;999.90;;;;;;;2.31;75.56;98523.66;5017471;28;20053;-65
2021/03/18 07:45:52;;;;;;;1999.90;999.90;;;;;;;3.27;72.13;98518.63;5017751;28;20068;-66
2021/03/18 07:48:23;;;;;;;1999.90;999.90;;;;;;;3.69;71.96;98516.66;5014343;28;20531;-65
2021/03/18 07:50:50;;;;;;;1999.90;999.90;;;;;;;2.88;72.20;98523.81;5013727;28;20065;-65
2021/03/18 07:53:19;;;;;;;1999.90;999.90;;;;;;;2.85;72.45;98518.88;5015892;28;20049;-65
2021/03/18 07:55:48;;;;;;;1999.90;999.90;;;;;;;3.62;70.52;98507.94;5011475;28;20053;-65
2021/03/18 07:58:34;;;;;;;1999.90;999.90;;;;;;;4.15;68.52;98507.50;5016977;28;20104;-65
2021/03/18 08:01:00;;;;;;;1999.90;999.90;;;;;;;3.84;67.07;98511.19;5016086;28;20748;-65
2021/03/18 08:03:28;;;;;;;1999.90;999.90;;;;;;;3.39;69.73;98515.63;5015371;28;20426;-64
2021/03/18 08:05:59;;;;;;;1999.90;999.90;;;;;;;3.53;68.93;98508.50;5015292;28;20045;-64
2021/03/18 08:08:30;;;;;;;1999.90;999.90;;;;;;;3.50;67.74;98516.44;5012817;28;20435;-65
2021/03/18 08:11:05;;;;;;;1999.90;999.90;;;;;;;3.26;70.92;98516.16;5018498;28;20129;-65
2021/03/18 08:13:33;;;;;;;1999.90;999.90;;;;;;;3.11;69.55;98520.56;5021441;28;20496;-65
2021/03/18 08:16:00;;;;;;;1999.90;999.90;;;;;;;3.29;67.92;98510.16;5019033;28;20059;-66
2021/03/18 08:18:27;;;;;;;1999.90;999.90;;;;;;;3.92;67.44;98506.25;5001507;28;20240;-66
2021/03/18 08:20:53;;;;;;;1999.90;999.90;;;;;;;3.49;68.42;98518.34;4139551;28;10000989;-66
2021/03/18 08:23:25;;;;;;;1999.90;999.90;;;;;;;3.28;67.82;98514.00;4132560;28;10002161;-66
2021/03/18 08:26:02;;;;;;;1999.90;999.90;;;;;;;3.73;67.47;98512.28;5016462;28;20390;-66
2021/03/18 08:28:47;;;;;;;1999.90;999.90;;;;;;;4.53;62.69;98499.69;5022387;28;20559;-66
2021/03/18 08:31:16;;;;;;;1999.90;999.90;;;;;;;4.87;64.47;98491.53;5000205;28;20059;-66
2021/03/18 08:33:51;;;;;;;1999.90;999.90;;;;;;;5.02;63.72;98500.75;5020735;28;20049;-66
2021/03/18 08:36:34;;;;;;;1999.90;999.90;;;;;;;5.36;62.51;98495.25;5022970;28;20073;-66
2021/03/18 08:39:02;;;;;;;1999.90;999.90;;;;;;;4.83;61.12;98498.66;5015192;28;20041;-66
2021/03/18 08:41:46;;;;;;;1999.90;999.90;;;;;;;5.08;60.45;98488.63;5002288;28;20062;-66
2021/03/18 08:44:17;;;;;;;1999.90;999.90;;;;;;;5.23;60.18;98488.50;5013854;28;20058;-66
2021/03/18 08:46:44;;;;;;;1999.90;999.90;;;;;;;5.58;61.19;98493.94;5019401;28;20542;-66
2021/03/18 08:49:32;;;;;;;1999.90;999.90;;;;;;;5.45;60.62;98500.94;5014217;28;20359;-66
2021/03/18 08:52:01;;;;;;;1999.90;999.90;;;;;;;5.27;59.63;98494.25;5014889;28;20053;-66
2021/03/18 08:54:36;;;;;;;1999.90;999.90;;;;;;;6.14;56.80;98489.81;5018658;28;20049;-66
2021/03/18 08:57:21;;;;;;;1999.90;999.90;;;;;;;5.24;57.32;98503.84;5017515;28;20135;-66
2021/03/18 08:59:50;;;;;;;1999.90;999.90;;;;;;;4.90;58.63;98496.44;5019408;28;20045;-66
2021/03/18 09:02:19;;;;;;;1999.90;999.90;;;;;;;3.53;61.80;98504.97;5018128;28;20049;-66
2021/03/18 09:04:49;;;;;;;1999.90;999.90;;;;;;;4.00;61.97;98502.91;5015492;28;20054;-66
2021/03/18 09:07:19;;;;;;;1999.90;999.90;;;;;;;5.10;61.55;98491.91;5012932;28;20058;-66
2021/03/18 09:09:46;;;;;;;1999.90;999.90;;;;;;;5.79;60.74;98484.41;5019452;28;20042;-66
2021/03/18 09:12:13;;;;;;;1999.90;999.90;;;;;;;5.99;56.47;98491.63;5004339;28;20049;-65
2021/03/18 09:14:39;;;;;;;1999.90;999.90;;;;;;;4.94;58.95;98493.94;5016321;28;20394;-66
2021/03/18 09:17:11;;;;;;;1999.90;999.90;;;;;;;5.16;58.50;98488.00;5016119;28;20579;-66
2021/03/18 09:19:43;;;;;;;1999.90;999.90;;;;;;;6.47;59.08;98487.19;5018113;28;20049;-66
2021/03/18 09:22:13;;;;;;;1999.90;999.90;;;;;;;6.62;56.34;98480.69;5015234;28;20083;-66
2021/03/18 09:24:41;;;;;;;1999.90;999.90;;;;;;;6.15;56.14;98483.22;5012788;28;20057;-66
2021/03/18 09:27:10;;;;;;;1999.90;999.90;;;;;;;6.03;56.15;98486.38;5017750;28;20060;-64
2021/03/18 09:29:37;;;;;;;1999.90;999.90;;;;;;;5.74;55.98;98480.91;5015771;28;20060;-64
2021/03/18 09:32:09;;;;;;;1999.90;999.90;;;;;;;5.54;56.06;98484.66;5017958;28;20049;-64
2021/03/18 09:34:43;;;;;;;1999.90;999.90;;;;;;;5.40;59.50;98484.53;5018118;28;20064;-65
2021/03/18 09:37:33;;;;;;;1999.90;999.90;;;;;;;5.72;55.12;98475.72;5019044;28;20064;-65
2021/03/18 09:39:59;;;;;;;1999.90;999.90;;;;;;;4.59;58.67;98477.44;5016537;28;20629;-65
2021/03/18 09:42:25;;;;;;;1999.90;999.90;;;;;;;5.77;58.50;98472.09;5019930;28;20107;-66
2021/03/18 09:44:53;;;;;;;1999.90;999.90;;;;;;;6.64;54.10;98478.44;5014395;28;20049;-65
2021/03/18 09:47:20;;;;;;;1999.90;999.90;;;;;;;4.70;56.03;98477.38;5017270;28;20045;-65
2021/03/18 09:49:46;;;;;;;1999.90;999.90;;;;;;;4.75;56.97;98485.59;5013878;28;20046;-65
2021/03/18 09:52:22;;;;;;;1999.90;999.90;;;;;;;4.32;59.02;98482.56;5014903;28;20053;-65
2021/03/18 09:54:50;;;;;;;1999.90;999.90;;;;;;;4.67;58.80;98481.50;5016561;28;20049;-65
2021/03/18 09:57:17;;;;;;;1999.90;999.90;;;;;;;4.57;58.60;98489.78;5017666;28;20041;-65
2021/03/18 09:59:49;;;;;;;1999.90;999.90;;;;;;;4.47;58.24;98487.94;5019388;28;20052;-66
2021/03/18 10:02:17;;;;;;;1999.90;999.90;;;;;;;5.02;58.01;98476.09;5017313;28;20053;-66
2021/03/18 10:04:44;;;;;;;1999.90;999.90;;;;;;;4.79;58.07;98478.41;5020516;28;20496;-66
2021/03/18 10:07:12;;;;;;;1999.90;999.90;;;;;;;3.85;60.00;98479.97;5014276;28;20224;-66
2021/03/18 10:09:41;;;;;;;1999.90;999.90;;;;;;;4.06;60.48;98477.16;5021650;28;20603;-66
2021/03/18 10:12:14;;;;;;;1999.90;999.90;;;;;;;4.22;59.65;98477.94;5019826;28;20049;-66
2021/03/18 10:14:46;;;;;;;1999.90;999.90;;;;;;;3.82;61.99;98483.25;5014960;28;20116;-66
2021/03/18 10:17:13;;;;;;;1999.90;999.90;;;;;;;4.65;60.20;98480.19;5019242;28;20529;-66
2021/03/18 10:19:45;;;;;;;1999.90;999.90;;;;;;;4.96;58.49;98480.78;5014781;28;20053;-64
2021/03/18 10:22:12;;;;;;;1999.90;999.90;;;;;;;4.93;58.49;98484.09;5018247;28;20558;-66
2021/03/18 10:24:38;;;;;;;1999.90;999.90;;;;;;;5.32;57.16;98472.25;5017188;28;20068;-65
2021/03/18 10:27:07;;;;;;;1999.90;999.90;;;;;;;4.88;59.59;98468.50;5015681;28;20068;-65
2021/03/18 10:29:34;;;;;;;1999.90;999.90;;;;;;;5.27;58.44;98464.09;5021482;28;23146;-65
2021/03/18 10:32:15;;;;;;;1999.90;999.90;;;;;;;4.70;58.37;98469.16;4998326;28;20057;-65
2021/03/18 10:34:53;;;;;;;1999.90;999.90;;;;;;;4.44;58.27;98472.06;5007590;28;20049;-65
2021/03/18 10:37:28;;;;;;;1999.90;999.90;;;;;;;4.52;58.50;98471.47;5017750;28;20054;-65
2021/03/18 10:40:13;;;;;;;1999.90;999.90;;;;;;;4.23;59.25;98479.56;5015417;28;20053;-65
2021/03/18 10:42:40;;;;;;;1999.90;999.90;;;;;;;4.75;60.47;98469.16;5016723;28;20050;-65
2021/03/18 10:45:31;;;;;;;1999.90;999.90;;;;;;;4.40;59.09;98471.00;5020399;28;20053;-65
2021/03/18 10:48:04;;;;;;;1999.90;999.90;;;;;;;4.43;59.69;98470.44;5015285;28;20127;-65
2021/03/18 10:50:34;;;;;;;1999.90;999.90;;;;;;;3.91;62.01;98474.50;5019855;28;20488;-65
2021/03/18 10:53:06;;;;;;;1999.90;999.90;;;;;;;3.33;65.55;98479.28;5015454;28;20049;-65
2021/03/18 10:55:35;;;;;;;1999.90;999.90;;;;;;;3.37;66.52;98465.88;5015991;28;20053;-65
2021/03/18 10:58:07;;;;;;;1999.90;999.90;;;;;;;3.42;66.59;98462.31;5018410;28;20057;-65
2021/03/18 11:00:37;;;;;;;1999.90;999.90;;;;;;;3.80;63.88;98460.03;5015911;28;20045;-65
2021/03/18 11:03:06;;;;;;;1999.90;999.90;;;;;;;3.50;66.11;98454.38;5014471;28;20076;-65
2021/03/18 11:05:39;;;;;;;1999.90;999.90;;;;;;;4.06;66.23;98455.28;5016997;28;20056;-65
2021/03/18 11:08:06;;;;;;;1999.90;999.90;;;;;;;4.78;62.42;98446.66;5018567;28;20053;-65
2021/03/18 11:10:39;;;;;;;1999.90;999.90;;;;;;;4.33;62.23;98446.69;5010260;28;20057;-65
2021/03/18 11:13:09;;;;;;;1999.90;999.90;;;;;;;4.83;62.68;98438.38;5016018;28;20045;-65
2021/03/18 11:15:58;;;;;;;1999.90;999.90;;;;;;;5.90;60.45;98443.94;5011658;28;20057;-66